createdAt,value
2019-03-20T00:01:00.824Z,142.55
2019-03-20T00:03:28.291Z,141.10
2019-03-20T00:05:55.440Z,142.32
2019-03-20T00:08:22.662Z,142.47
2019-03-20T00:10:49.804Z,141.90
2019-03-20T00:13:17.059Z,143.55
2019-03-20T00:15:44.283Z,140.05
2019-03-20T00:18:11.709Z,141.35
2019-03-20T00:20:38.838Z,142.77
2019-03-20T00:23:06.045Z,139.30
2019-03-20T00:25:33.685Z,140.10
2019-03-20T00:28:01.092Z,140.90
2019-03-20T00:30:28.200Z,139.52
2019-03-20T00:32:56.660Z,139.40
2019-03-20T00:35:23.842Z,139.75
2019-03-20T00:37:52.566Z,141.22
2019-03-20T00:40:20.772Z,140.77
2019-03-20T00:42:48.150Z,139.92
2019-03-20T00:45:15.266Z,139.07
2019-03-20T00:47:42.859Z,141.47
2019-03-20T00:50:13.541Z,140.55
2019-03-20T00:52:40.625Z,142.65
2019-03-20T00:55:08.927Z,141.03
2019-03-20T00:57:36.092Z,139.47
2019-03-20T01:00:06.501Z,139.63
2019-03-20T01:02:34.686Z,141.03
2019-03-20T01:05:12.193Z,139.73
2019-03-20T01:07:30.822Z,140.53
2019-03-20T01:09:57.851Z,140.43
2019-03-20T01:12:25.065Z,140.87
2019-03-20T01:14:52.584Z,140.13
2019-03-20T01:17:19.642Z,140.87
2019-03-20T01:19:46.693Z,139.22
2019-03-20T01:22:14.045Z,139.57
2019-03-20T01:24:41.074Z,139.53
2019-03-20T01:27:08.614Z,138.73
2019-03-20T01:29:37.516Z,138.70
2019-03-20T01:32:04.686Z,139.90
2019-03-20T01:34:31.713Z,138.10
2019-03-20T01:36:58.804Z,140.00
2019-03-20T01:39:27.604Z,139.22
2019-03-20T01:41:54.656Z,139.00
2019-03-20T01:44:21.821Z,138.80
2019-03-20T01:46:48.896Z,140.33
2019-03-20T01:49:15.946Z,138.55
2019-03-20T01:51:46.189Z,138.75
2019-03-20T01:54:13.202Z,138.60
2019-03-20T01:56:40.289Z,139.68
2019-03-20T01:59:07.386Z,138.55
2019-03-20T02:01:36.204Z,137.70
2019-03-20T02:04:03.565Z,136.92
2019-03-20T02:06:30.682Z,137.37
2019-03-20T02:08:57.705Z,137.87
2019-03-20T02:11:26.948Z,137.80
2019-03-20T02:13:54.075Z,139.25
2019-03-20T02:16:21.162Z,138.33
2019-03-20T02:18:48.679Z,137.50
2019-03-20T02:21:15.919Z,137.70
2019-03-20T02:23:42.989Z,138.43
2019-03-20T02:26:10.483Z,137.93
2019-03-20T02:28:37.588Z,138.35
2019-03-20T02:31:05.717Z,138.53
2019-03-20T02:33:33.171Z,137.75
2019-03-20T02:36:00.329Z,139.97
2019-03-20T02:38:27.464Z,138.45
2019-03-20T02:40:55.718Z,137.10
2019-03-20T02:43:23.061Z,137.90
2019-03-20T02:45:50.101Z,136.90
2019-03-20T02:48:17.180Z,137.53
2019-03-20T02:50:45.573Z,137.17
2019-03-20T02:53:12.594Z,137.50
2019-03-20T02:55:40.910Z,137.57
2019-03-20T02:58:08.392Z,138.37
2019-03-20T03:00:35.441Z,138.47
2019-03-20T03:03:02.775Z,138.03
2019-03-20T03:05:30.238Z,138.13
2019-03-20T03:07:57.282Z,138.17
2019-03-20T03:10:24.333Z,138.00
2019-03-20T03:12:51.735Z,139.40
2019-03-20T03:15:18.814Z,138.10
2019-03-20T03:17:45.868Z,137.83
2019-03-20T03:20:13.012Z,139.13
2019-03-20T03:22:40.021Z,138.70
2019-03-20T03:25:07.060Z,138.90
2019-03-20T03:27:34.099Z,138.52
2019-03-20T03:30:01.178Z,138.90
2019-03-20T03:32:28.196Z,139.43
2019-03-20T03:34:55.480Z,138.82
2019-03-20T03:37:24.337Z,139.55
2019-03-20T03:39:52.617Z,138.50
2019-03-20T03:42:19.709Z,139.57
2019-03-20T03:44:46.772Z,137.57
2019-03-20T03:47:14.184Z,136.73
2019-03-20T03:49:43.511Z,137.10
2019-03-20T03:52:10.569Z,136.73
2019-03-20T03:54:38.064Z,137.03
2019-03-20T03:57:05.499Z,138.17
2019-03-20T03:59:32.547Z,137.97
2019-03-20T04:01:59.596Z,139.95
2019-03-20T04:04:26.684Z,137.97
2019-03-20T04:06:53.727Z,138.07
2019-03-20T04:09:20.750Z,137.97
2019-03-20T04:11:47.849Z,139.47
2019-03-20T04:14:14.906Z,138.50
2019-03-20T04:16:41.972Z,140.27
2019-03-20T04:19:09.027Z,138.17
2019-03-20T04:21:36.089Z,138.93
2019-03-20T04:24:03.536Z,139.33
2019-03-20T04:26:30.629Z,138.13
2019-03-20T04:28:58.143Z,137.07
2019-03-20T04:31:25.202Z,138.05
2019-03-20T04:33:52.650Z,138.83
2019-03-20T04:36:19.678Z,139.40
2019-03-20T04:38:46.732Z,140.53
2019-03-20T04:41:13.827Z,139.63
2019-03-20T04:43:40.892Z,139.88
2019-03-20T04:46:07.906Z,140.87
2019-03-20T04:48:35.374Z,140.20
2019-03-20T04:51:02.407Z,140.20
2019-03-20T04:53:29.451Z,139.37
2019-03-20T04:55:59.319Z,140.13
2019-03-20T04:58:26.325Z,139.33
2019-03-20T05:00:53.491Z,138.67
2019-03-20T05:03:20.896Z,137.67
2019-03-20T05:05:47.911Z,137.83
2019-03-20T05:08:14.929Z,137.17
2019-03-20T05:10:42.345Z,137.73
2019-03-20T05:13:09.354Z,136.27
2019-03-20T05:15:36.386Z,137.13
2019-03-20T05:18:03.480Z,137.00
2019-03-20T05:20:30.506Z,137.63
2019-03-20T05:22:57.655Z,137.73
2019-03-20T05:25:24.751Z,137.20
2019-03-20T05:27:51.823Z,139.33
2019-03-20T05:30:19.495Z,138.10
2019-03-20T05:32:46.579Z,137.93
2019-03-20T05:35:13.587Z,138.07
2019-03-20T05:37:40.968Z,139.87
2019-03-20T05:40:09.720Z,138.53
2019-03-20T05:42:36.780Z,139.30
2019-03-20T05:45:05.198Z,139.20
2019-03-20T05:47:32.294Z,138.50
2019-03-20T05:49:59.355Z,137.30
2019-03-20T05:52:26.403Z,140.47
2019-03-20T05:54:54.651Z,142.93
2019-03-20T05:57:21.877Z,144.37
2019-03-20T05:59:49.289Z,140.63
2019-03-20T06:02:16.788Z,143.67
2019-03-20T06:04:43.829Z,138.77
2019-03-20T06:07:20.869Z,140.87
2019-03-20T06:09:39.922Z,142.95
2019-03-20T06:12:07.000Z,142.15
2019-03-20T06:14:34.255Z,143.20
2019-03-20T06:17:01.854Z,143.02
2019-03-20T06:19:28.887Z,144.90
2019-03-20T06:21:55.945Z,144.65
2019-03-20T06:24:41.872Z,144.15
2019-03-20T06:27:18.804Z,146.87
2019-03-20T06:29:46.817Z,146.77
2019-03-20T06:32:13.891Z,145.92
2019-03-20T06:41:43.826Z,146.47
2019-03-20T06:44:12.697Z,148.90
2019-03-20T06:46:40.030Z,148.90
2019-03-20T06:49:08.063Z,148.15
2019-03-20T06:51:35.214Z,150.20
2019-03-20T06:54:02.233Z,150.80
2019-03-20T06:56:30.073Z,149.45
2019-03-20T06:59:48.127Z,151.57
2019-03-20T07:02:17.905Z,151.00
2019-03-20T07:05:10.999Z,154.03
2019-03-20T07:07:43.934Z,153.72
2019-03-20T07:10:22.087Z,155.15
2019-03-20T07:12:49.294Z,170.62
2019-03-20T07:15:16.343Z,156.30
2019-03-20T07:17:43.404Z,158.35
2019-03-20T07:20:10.917Z,158.90
2019-03-20T07:22:37.973Z,172.13
2019-03-20T07:25:05.082Z,165.85
2019-03-20T07:27:32.188Z,166.85
2019-03-20T07:29:59.247Z,160.55
2019-03-20T07:36:23.155Z,151.32
2019-03-20T07:38:56.787Z,156.93
2019-03-20T07:41:27.751Z,152.30
2019-03-20T07:43:54.920Z,165.10
2019-03-20T07:46:21.995Z,157.65
2019-03-20T07:48:49.056Z,157.50
2019-03-20T07:51:17.258Z,158.15
2019-03-20T07:53:46.995Z,158.80
2019-03-20T07:56:14.062Z,158.30
2019-03-20T07:58:41.090Z,159.52
2019-03-20T08:01:08.176Z,160.78
2019-03-20T08:03:37.479Z,161.82
2019-03-20T08:06:04.955Z,162.57
2019-03-20T08:08:33.343Z,162.53
2019-03-20T08:11:00.614Z,162.72
2019-03-20T08:13:27.711Z,163.20
2019-03-20T08:15:54.790Z,163.50
2019-03-20T08:18:22.419Z,162.20
2019-03-20T08:20:49.481Z,161.37
2019-03-20T08:23:16.650Z,162.37
2019-03-20T08:25:43.713Z,162.03
2019-03-20T08:28:14.864Z,167.95
2019-03-20T08:30:41.937Z,163.52
2019-03-20T08:33:09.707Z,159.75
2019-03-20T08:35:48.217Z,156.63
2019-03-20T08:38:18.719Z,156.87
2019-03-20T08:40:45.777Z,157.45
2019-03-20T08:43:14.052Z,158.50
2019-03-20T08:45:41.127Z,156.30
2019-03-20T08:48:08.527Z,164.97
2019-03-20T08:50:35.616Z,157.80
2019-03-20T08:53:04.384Z,158.03
2019-03-20T08:55:31.522Z,156.02
2019-03-20T08:57:58.708Z,155.03
2019-03-20T09:00:35.718Z,153.45
2019-03-20T09:03:03.279Z,153.97
2019-03-20T09:05:30.377Z,159.45
2019-03-20T09:07:57.605Z,154.32
2019-03-20T09:10:24.701Z,158.30
2019-03-20T09:12:51.765Z,154.95
2019-03-20T09:15:20.646Z,157.57
2019-03-20T09:17:47.934Z,157.80
2019-03-20T09:20:18.624Z,157.72
2019-03-20T09:22:48.578Z,157.60
2019-03-20T09:25:15.898Z,157.50
2019-03-20T09:27:43.286Z,161.32
2019-03-20T09:30:16.261Z,158.60
2019-03-20T09:32:45.211Z,166.40
2019-03-20T09:35:12.439Z,158.05
2019-03-20T09:37:50.908Z,159.87
2019-03-20T09:40:10.044Z,159.78
2019-03-20T09:42:37.082Z,162.43
2019-03-20T09:45:07.237Z,162.72
2019-03-20T09:47:34.385Z,160.75
2019-03-20T09:50:01.547Z,164.72
2019-03-20T09:52:29.063Z,162.25
2019-03-20T09:54:56.194Z,163.97
2019-03-20T09:57:23.421Z,164.28
2019-03-20T09:59:50.529Z,163.82
2019-03-20T10:02:17.660Z,163.77
2019-03-20T10:04:44.892Z,163.05
2019-03-20T10:07:11.966Z,163.00
2019-03-20T10:09:40.431Z,161.12
2019-03-20T10:12:07.549Z,158.63
2019-03-20T10:14:34.642Z,161.47
2019-03-20T10:17:01.678Z,161.45
2019-03-20T10:19:28.749Z,162.50
2019-03-20T10:21:55.869Z,162.70
2019-03-20T10:24:23.620Z,162.68
2019-03-20T10:26:50.819Z,161.73
2019-03-20T10:29:17.872Z,161.75
2019-03-20T10:31:44.967Z,164.13
2019-03-20T10:34:13.241Z,161.07
2019-03-20T10:36:40.456Z,161.77
2019-03-20T10:39:07.738Z,162.53
2019-03-20T10:41:34.875Z,163.30
2019-03-20T10:44:01.988Z,160.45
2019-03-20T10:46:29.082Z,161.05
2019-03-20T10:48:56.596Z,161.57
2019-03-20T10:51:25.517Z,158.35
2019-03-20T10:53:52.565Z,160.95
2019-03-20T10:56:19.608Z,163.75
2019-03-20T10:58:46.682Z,164.60
2019-03-20T11:01:13.752Z,165.73
2019-03-20T11:03:41.344Z,168.40
2019-03-20T11:06:13.886Z,165.03
2019-03-20T11:08:40.915Z,166.30
2019-03-20T11:11:07.949Z,160.52
2019-03-20T11:13:35.090Z,158.00
2019-03-20T11:16:02.160Z,161.45
2019-03-20T11:18:29.694Z,162.60
2019-03-20T11:20:57.108Z,159.40
2019-03-20T11:23:24.132Z,159.20
2019-03-20T11:25:51.586Z,161.22
2019-03-20T11:28:18.655Z,158.15
2019-03-20T11:30:46.778Z,157.93
2019-03-20T11:33:13.822Z,158.85
2019-03-20T11:35:42.552Z,159.30
2019-03-20T11:38:09.698Z,160.07
2019-03-20T11:40:36.767Z,158.90
2019-03-20T11:43:04.463Z,160.65
2019-03-20T11:45:31.690Z,159.10
2019-03-20T11:47:58.964Z,164.28
2019-03-20T11:50:42.575Z,161.05
2019-03-20T11:53:09.643Z,160.88
2019-03-20T11:55:36.718Z,161.65
2019-03-20T11:58:05.589Z,161.18
2019-03-20T12:00:33.012Z,160.00
2019-03-20T12:03:00.431Z,158.90
2019-03-20T12:05:31.079Z,157.00
2019-03-20T12:08:00.025Z,157.75
2019-03-20T12:10:28.332Z,159.15
2019-03-20T12:12:55.409Z,162.10
2019-03-20T12:15:22.934Z,164.13
2019-03-20T12:17:50.115Z,164.77
2019-03-20T12:20:18.055Z,165.32
2019-03-20T12:27:14.960Z,165.80
2019-03-20T12:29:39.721Z,167.80
2019-03-20T12:32:07.040Z,168.20
2019-03-20T12:34:36.407Z,166.15
2019-03-20T12:37:06.934Z,171.47
2019-03-20T12:39:34.974Z,170.07
2019-03-20T12:42:03.263Z,169.57
2019-03-20T12:44:30.387Z,167.15
2019-03-20T12:46:57.809Z,169.65
2019-03-20T12:49:25.188Z,170.30
2019-03-20T12:51:52.586Z,165.35
2019-03-20T12:54:19.610Z,166.57
2019-03-20T12:56:46.638Z,166.45
2019-03-20T12:59:14.150Z,165.07
2019-03-20T13:01:41.258Z,162.88
2019-03-20T13:04:08.310Z,159.80
2019-03-20T13:06:35.398Z,160.20
2019-03-20T13:09:04.704Z,161.10
2019-03-20T13:11:33.645Z,159.03
2019-03-20T13:14:01.401Z,161.60
2019-03-20T13:16:29.595Z,158.47
2019-03-20T13:18:56.603Z,158.75
2019-03-20T13:21:24.168Z,159.12
2019-03-20T13:23:51.300Z,157.10
2019-03-20T13:26:19.124Z,158.12
2019-03-20T13:28:46.706Z,159.50
2019-03-20T13:31:16.713Z,159.35
2019-03-20T13:33:43.782Z,159.72
2019-03-20T13:36:10.879Z,159.95
2019-03-20T13:38:37.969Z,158.90
2019-03-20T13:41:05.183Z,160.97
2019-03-20T13:43:34.366Z,157.62
2019-03-20T13:46:02.604Z,159.80
2019-03-20T13:48:29.639Z,161.05
2019-03-20T13:50:56.744Z,159.93
2019-03-20T13:53:24.023Z,162.22
2019-03-20T13:55:51.137Z,161.57
2019-03-20T13:58:18.233Z,159.75
2019-03-20T14:00:45.266Z,160.35
2019-03-20T14:03:12.402Z,164.22
2019-03-20T14:05:39.508Z,162.12
2019-03-20T14:08:09.657Z,165.32
2019-03-20T14:10:49.653Z,164.13
2019-03-20T14:16:26.228Z,165.12
2019-03-20T14:18:53.340Z,164.75
2019-03-20T14:21:20.370Z,167.93
2019-03-20T14:23:48.699Z,165.95
2019-03-20T14:26:16.144Z,164.88
2019-03-20T14:28:45.274Z,161.47
2019-03-20T14:31:12.402Z,164.18
2019-03-20T14:33:39.514Z,165.05
2019-03-20T14:36:07.589Z,166.68
2019-03-20T14:38:34.765Z,164.52
2019-03-20T14:41:02.295Z,165.55
2019-03-20T14:43:29.680Z,163.68
2019-03-20T14:45:56.819Z,162.47
2019-03-20T14:48:23.899Z,159.78
2019-03-20T14:50:51.040Z,159.95
2019-03-20T14:53:18.577Z,159.10
2019-03-20T14:55:45.718Z,158.90
2019-03-20T14:58:12.752Z,159.82
2019-03-20T15:00:40.236Z,159.85
2019-03-20T15:03:07.352Z,159.90
2019-03-20T15:05:36.177Z,163.22
2019-03-20T15:08:05.242Z,160.15
2019-03-20T15:10:32.574Z,163.25
2019-03-20T15:13:01.886Z,162.53
2019-03-20T15:15:35.253Z,161.25
2019-03-20T15:18:02.597Z,162.05
2019-03-20T15:20:30.160Z,161.55
2019-03-20T15:22:58.403Z,160.67
2019-03-20T15:25:25.571Z,160.80
2019-03-20T15:27:54.347Z,160.03
2019-03-20T15:30:21.741Z,159.97
2019-03-20T15:32:48.789Z,158.50
2019-03-20T15:35:16.451Z,158.68
2019-03-20T15:37:44.358Z,161.77
2019-03-20T15:40:13.047Z,159.05
2019-03-20T15:42:40.103Z,160.78
2019-03-20T15:45:08.355Z,162.53
2019-03-20T15:47:35.430Z,162.10
2019-03-20T15:50:03.635Z,163.45
2019-03-20T15:52:30.752Z,162.47
2019-03-20T15:55:01.437Z,160.07
2019-03-20T15:57:29.596Z,159.48
2019-03-20T15:59:56.659Z,159.50
2019-03-20T16:02:23.947Z,160.30
2019-03-20T16:04:51.000Z,161.92
2019-03-20T16:07:18.225Z,163.47
2019-03-20T16:09:47.102Z,160.88
2019-03-20T16:12:14.134Z,161.62
2019-03-20T16:14:41.237Z,166.53
2019-03-20T16:17:08.796Z,161.97
2019-03-20T16:19:37.092Z,161.88
2019-03-20T16:22:05.980Z,163.75
2019-03-20T16:24:38.290Z,163.50
2019-03-20T16:27:10.607Z,162.57
2019-03-20T16:29:38.078Z,164.57
2019-03-20T16:32:10.126Z,166.10
2019-03-20T16:34:37.288Z,164.20
2019-03-20T16:37:04.361Z,164.45
2019-03-20T16:39:31.731Z,164.67
2019-03-20T16:41:58.823Z,160.03
2019-03-20T16:44:26.212Z,160.40
2019-03-20T16:46:53.282Z,161.30
2019-03-20T16:49:20.587Z,160.65
2019-03-20T16:51:48.118Z,160.48
2019-03-20T16:54:15.285Z,162.03
2019-03-20T16:56:42.361Z,160.05
2019-03-20T16:59:09.433Z,162.47
2019-03-20T17:01:36.933Z,161.25
2019-03-20T17:04:04.387Z,164.85
2019-03-20T17:06:31.475Z,160.30
2019-03-20T17:08:58.864Z,169.35
2019-03-20T17:11:34.465Z,160.60
2019-03-20T17:13:55.294Z,159.22
2019-03-20T17:16:24.215Z,160.78
2019-03-20T17:18:51.359Z,159.90
2019-03-20T17:21:18.552Z,160.67
2019-03-20T17:23:46.726Z,157.30
2019-03-20T17:26:13.964Z,158.85
2019-03-20T17:28:44.472Z,159.05
2019-03-20T17:31:12.030Z,156.47
2019-03-20T17:33:39.630Z,157.65
2019-03-20T17:36:06.757Z,156.65
2019-03-20T17:38:33.888Z,156.20
2019-03-20T17:41:01.230Z,156.28
2019-03-20T17:43:30.539Z,156.35
2019-03-20T17:45:58.022Z,155.05
2019-03-20T17:48:25.563Z,155.70
2019-03-20T17:50:52.642Z,156.85
2019-03-20T17:53:20.025Z,155.55
2019-03-20T17:55:48.547Z,157.20
2019-03-20T17:58:15.634Z,156.35
2019-03-20T18:00:44.788Z,155.45
2019-03-20T18:03:12.626Z,159.20
2019-03-20T18:05:40.039Z,155.70
2019-03-20T18:08:07.087Z,157.60
2019-03-20T18:10:34.750Z,155.30
2019-03-20T18:13:02.113Z,155.10
2019-03-20T18:15:30.911Z,156.32
2019-03-20T18:18:01.220Z,156.78
2019-03-20T18:20:28.304Z,158.60
2019-03-20T18:22:55.547Z,157.18
2019-03-20T18:25:27.273Z,157.97
2019-03-20T18:27:54.387Z,156.35
2019-03-20T18:30:22.106Z,157.85
2019-03-20T18:32:49.246Z,158.18
2019-03-20T18:35:17.546Z,159.85
2019-03-20T18:37:44.926Z,157.07
2019-03-20T18:40:13.837Z,155.90
2019-03-20T18:42:41.543Z,155.80
2019-03-20T18:45:16.086Z,155.35
2019-03-20T18:47:43.320Z,153.97
2019-03-20T18:50:12.921Z,158.10
2019-03-20T18:52:40.448Z,164.75
2019-03-20T18:55:08.526Z,157.62
2019-03-20T18:57:36.785Z,157.62
2019-03-20T19:00:06.134Z,154.18
2019-03-20T19:02:33.378Z,154.65
2019-03-20T19:05:00.449Z,152.85
2019-03-20T19:07:28.107Z,151.87
2019-03-20T19:09:55.479Z,152.10
2019-03-20T19:12:22.552Z,151.30
2019-03-20T19:14:51.646Z,150.78
2019-03-20T19:17:19.032Z,152.02
2019-03-20T19:19:46.380Z,151.37
2019-03-20T19:22:13.746Z,150.00
2019-03-20T19:24:40.866Z,151.02
2019-03-20T19:27:10.926Z,150.87
2019-03-20T19:29:38.526Z,150.03
2019-03-20T19:32:05.574Z,148.62
2019-03-20T19:34:32.640Z,152.78
2019-03-20T19:37:00.000Z,149.87
2019-03-20T19:39:27.058Z,147.87
2019-03-20T19:41:58.787Z,151.57
2019-03-20T19:44:25.916Z,151.40
2019-03-20T19:46:53.010Z,150.40
2019-03-20T19:49:20.553Z,153.07
2019-03-20T19:51:47.693Z,152.15
2019-03-20T19:54:14.869Z,150.97
2019-03-20T19:56:42.921Z,150.53
2019-03-20T19:59:10.030Z,150.60
2019-03-20T20:01:37.104Z,149.42
2019-03-20T20:04:04.177Z,149.68
2019-03-20T20:06:31.395Z,150.12
2019-03-20T20:08:58.589Z,151.97
2019-03-20T20:11:25.725Z,152.95
2019-03-20T20:13:52.828Z,151.78
2019-03-20T20:16:19.865Z,156.70
2019-03-20T20:18:48.873Z,156.05
2019-03-20T20:21:17.604Z,163.22
2019-03-20T20:23:44.657Z,151.87
2019-03-20T20:26:12.443Z,151.40
2019-03-20T20:28:40.155Z,151.27
2019-03-20T20:31:07.345Z,151.00
2019-03-20T20:33:34.599Z,150.53
2019-03-20T20:36:01.703Z,149.23
2019-03-20T20:38:29.073Z,150.00
2019-03-20T20:40:56.107Z,148.02
2019-03-20T20:43:23.769Z,149.35
2019-03-20T20:45:51.015Z,148.60
2019-03-20T20:48:18.067Z,148.20
2019-03-20T20:50:45.315Z,148.00
2019-03-20T20:53:12.538Z,146.68
2019-03-20T20:55:39.588Z,147.53
2019-03-20T20:58:06.790Z,148.93
2019-03-20T21:00:33.914Z,146.95
2019-03-20T21:03:01.333Z,147.50
2019-03-20T21:05:28.494Z,149.25
2019-03-20T21:07:55.528Z,149.38
2019-03-20T21:10:22.570Z,147.07
2019-03-20T21:12:56.062Z,146.82
2019-03-20T21:15:40.270Z,147.37
2019-03-20T21:18:55.702Z,146.60
2019-03-20T21:21:34.387Z,145.65
2019-03-20T21:24:27.054Z,147.10
2019-03-20T21:27:42.079Z,148.65
2019-03-20T21:31:08.921Z,148.38
2019-03-20T21:34:14.505Z,148.43
2019-03-20T21:37:18.374Z,148.85
2019-03-20T21:39:47.396Z,148.28
2019-03-20T21:43:06.849Z,148.87
2019-03-20T21:46:18.972Z,148.57
2019-03-20T21:48:46.617Z,149.80
2019-03-20T21:51:15.473Z,150.68
2019-03-20T21:54:21.636Z,148.22
2019-03-20T21:57:27.059Z,148.53
2019-03-20T22:00:39.520Z,147.40
2019-03-20T22:03:07.395Z,148.97
2019-03-20T22:06:22.467Z,149.53
2019-03-20T22:08:50.429Z,146.45
2019-03-20T22:11:53.353Z,149.42
2019-03-20T22:14:20.927Z,146.32
2019-03-20T22:17:25.052Z,144.77
2019-03-20T22:20:33.537Z,145.82
2019-03-20T22:23:09.699Z,144.47
2019-03-20T22:26:17.867Z,145.47
2019-03-20T22:29:26.774Z,146.13
2019-03-20T22:32:51.004Z,144.93
2019-03-20T22:35:40.711Z,145.62
2019-03-20T22:38:21.816Z,145.15
2019-03-20T22:41:28.981Z,146.80
2019-03-20T22:44:00.615Z,146.25
2019-03-20T22:47:08.740Z,145.82
2019-03-20T22:50:12.360Z,146.70
2019-03-20T22:53:19.022Z,146.25
2019-03-20T22:56:19.353Z,144.70
2019-03-20T22:58:47.524Z,144.85
2019-03-20T23:01:44.709Z,143.50
2019-03-20T23:04:20.370Z,144.40
2019-03-20T23:06:49.074Z,144.20
2019-03-20T23:09:18.955Z,144.95
2019-03-20T23:11:52.226Z,144.13
2019-03-20T23:14:23.996Z,144.13
2019-03-20T23:16:51.577Z,143.78
2019-03-20T23:19:19.410Z,143.25
2019-03-20T23:21:46.976Z,144.15
2019-03-20T23:24:14.669Z,144.62
2019-03-20T23:26:42.717Z,144.22
2019-03-20T23:29:10.407Z,144.72
2019-03-20T23:31:39.931Z,144.55
2019-03-20T23:34:08.606Z,145.35
2019-03-20T23:36:36.196Z,145.55
2019-03-20T23:39:07.050Z,145.15
2019-03-20T23:41:34.798Z,145.30
2019-03-20T23:44:04.662Z,145.35
2019-03-20T23:46:32.393Z,146.75
2019-03-20T23:49:04.210Z,144.68
2019-03-20T23:51:33.732Z,144.80
2019-03-20T23:54:01.976Z,146.02
2019-03-20T23:56:31.670Z,145.40
2019-03-20T23:58:59.310Z,146.15
